Time;durP1;ratioP1;P1;durP2;ratioP2;P2;SDS_P1;SDS_P2;PMS_P1;PMS_P2;Temp;Humidity;BMP_temperature;BMP_pressure;BME280_temperature;BME280_humidity;BME280_pressure;Samples;Min_cycle;Max_cycle;Signal;HPM_P1;HPM_P2
2023/12/13 00:02:17;;;;;;;27.90;11.20;;;;;;;;;;7369119;19;20444;-75
2023/12/13 00:04:42;;;;;;;24.00;11.07;;;;;;;;;;7368409;19;20006;-75
2023/12/13 00:07:08;;;;;;;25.42;11.70;;;;;;;;;;7363429;19;20003;-75
2023/12/13 00:09:33;;;;;;;21.25;10.98;;;;;;;;;;7385489;19;20923;-75
2023/12/13 00:11:58;;;;;;;22.02;10.15;;;;;;;;;;7362974;19;20002;-75
2023/12/13 00:14:24;;;;;;;26.35;11.52;;;;;;;;;;7361956;19;20018;-75
2023/12/13 00:16:50;;;;;;;20.60;11.00;;;;;;;;;;7362265;19;20006;-75
2023/12/13 00:19:15;;;;;;;19.42;10.80;;;;;;;;;;7363414;19;20050;-75
2023/12/13 00:21:40;;;;;;;20.77;11.20;;;;;;;;;;7384270;19;20002;-75
2023/12/13 00:24:07;;;;;;;20.85;11.15;;;;;;;;;;7361038;19;20433;-75
2023/12/13 00:26:32;;;;;;;22.02;11.30;;;;;;;;;;7361864;19;20007;-75
2023/12/13 00:28:57;;;;;;;22.80;11.77;;;;;;;;;;7364752;19;20007;-75
2023/12/13 00:31:23;;;;;;;20.25;10.70;;;;;;;;;;7366858;19;20020;-75
2023/12/13 00:33:48;;;;;;;18.88;10.30;;;;;;;;;;7372877;19;20348;-75
2023/12/13 00:36:14;;;;;;;18.00;10.10;;;;;;;;;;7383136;19;20038;-74
2023/12/13 00:38:40;;;;;;;22.77;10.10;;;;;;;;;;7365561;19;20007;-74
2023/12/13 00:41:05;;;;;;;23.35;10.00;;;;;;;;;;7365746;19;20010;-74
2023/12/13 00:43:30;;;;;;;20.02;9.18;;;;;;;;;;7364480;19;20006;-74
2023/12/13 00:45:56;;;;;;;18.13;8.77;;;;;;;;;;7365000;19;20006;-75
2023/12/13 00:48:21;;;;;;;20.67;8.65;;;;;;;;;;7387613;19;20429;-75
2023/12/13 00:50:46;;;;;;;21.30;8.57;;;;;;;;;;7364988;19;20010;-75
2023/12/13 00:53:12;;;;;;;17.75;8.50;;;;;;;;;;7364240;19;20074;-75
2023/12/13 00:55:38;;;;;;;21.98;9.80;;;;;;;;;;7364953;19;20010;-75
2023/12/13 00:58:03;;;;;;;27.90;9.95;;;;;;;;;;7365598;19;19995;-75
2023/12/13 01:00:29;;;;;;;26.60;11.45;;;;;;;;;;7387644;19;20022;-75
2023/12/13 01:02:55;;;;;;;21.50;10.68;;;;;;;;;;7362260;19;20019;-74
2023/12/13 01:05:20;;;;;;;24.65;11.70;;;;;;;;;;7364582;19;20010;-75
2023/12/13 01:07:45;;;;;;;21.10;10.73;;;;;;;;;;7365038;19;20003;-75
2023/12/13 01:10:11;;;;;;;25.60;10.88;;;;;;;;;;7365712;19;20045;-75
2023/12/13 01:12:36;;;;;;;22.20;10.48;;;;;;;;;;7388684;19;20003;-75
2023/12/13 01:15:02;;;;;;;20.40;9.80;;;;;;;;;;7368180;19;20006;-75
2023/12/13 01:17:27;;;;;;;21.80;10.07;;;;;;;;;;7367254;19;20070;-75
2023/12/13 01:19:53;;;;;;;22.40;9.75;;;;;;;;;;7368468;19;20054;-75
2023/12/13 01:22:19;;;;;;;20.05;9.45;;;;;;;;;;7364705;19;20015;-75
2023/12/13 01:24:44;;;;;;;30.58;11.93;;;;;;;;;;7386341;19;20838;-75
2023/12/13 01:27:09;;;;;;;24.40;9.98;;;;;;;;;;7363452;19;20006;-75
2023/12/13 01:29:35;;;;;;;31.83;11.07;;;;;;;;;;7369521;19;20011;-75
2023/12/13 01:32:00;;;;;;;27.08;10.70;;;;;;;;;;7371640;19;20006;-75
2023/12/13 01:34:25;;;;;;;28.67;11.27;;;;;;;;;;7368693;19;20003;-75
2023/12/13 01:36:51;;;;;;;28.10;10.80;;;;;;;;;;7365832;19;20014;-75
2023/12/13 01:39:16;;;;;;;32.40;10.23;;;;;;;;;;7385132;19;20022;-75
2023/12/13 01:41:42;;;;;;;28.65;11.25;;;;;;;;;;7363583;19;20031;-75
2023/12/13 01:44:09;;;;;;;20.52;9.23;;;;;;;;;;7362641;19;20006;-75
2023/12/13 01:46:34;;;;;;;23.02;10.18;;;;;;;;;;7363282;19;20006;-75
2023/12/13 01:49:01;;;;;;;22.23;10.07;;;;;;;;;;7364037;19;20003;-75
2023/12/13 01:51:26;;;;;;;22.55;9.57;;;;;;;;;;7385264;19;19999;-75
2023/12/13 01:53:52;;;;;;;20.08;9.27;;;;;;;;;;7361627;19;20519;-75
2023/12/13 01:56:17;;;;;;;15.93;8.43;;;;;;;;;;7363237;19;20543;-75
2023/12/13 01:58:43;;;;;;;15.82;8.20;;;;;;;;;;7364539;19;20003;-75
2023/12/13 02:01:09;;;;;;;20.60;9.98;;;;;;;;;;7362365;19;20386;-75
2023/12/13 02:03:36;;;;;;;23.15;9.93;;;;;;;;;;7383433;19;20006;-75
2023/12/13 02:06:02;;;;;;;20.80;9.60;;;;;;;;;;7362300;19;20014;-75
2023/12/13 02:08:28;;;;;;;20.23;9.93;;;;;;;;;;7362013;19;20558;-75
2023/12/13 02:10:55;;;;;;;22.95;10.85;;;;;;;;;;7360815;19;20006;-75
2023/12/13 02:13:21;;;;;;;21.15;10.15;;;;;;;;;;7360000;19;20010;-75
2023/12/13 02:15:47;;;;;;;25.02;9.50;;;;;;;;;;7386227;19;20037;-75
2023/12/13 02:18:16;;;;;;;19.90;9.85;;;;;;;;;;7368375;19;20007;-75
2023/12/13 02:20:42;;;;;;;20.55;9.32;;;;;;;;;;7368625;19;20011;-75
2023/12/13 02:23:07;;;;;;;19.17;8.85;;;;;;;;;;7366298;19;20010;-75
2023/12/13 02:25:44;;;;;;;16.50;8.73;;;;;;;;;;7367319;19;20006;-75
2023/12/13 02:28:10;;;;;;;17.90;9.02;;;;;;;;;;7368643;19;20961;-75
2023/12/13 02:30:36;;;;;;;15.23;8.13;;;;;;;;;;7393260;19;20006;-75
2023/12/13 02:33:01;;;;;;;20.13;8.43;;;;;;;;;;7371267;19;20018;-75
2023/12/13 02:35:26;;;;;;;17.42;7.57;;;;;;;;;;7372935;19;20007;-75
2023/12/13 02:37:52;;;;;;;19.85;7.70;;;;;;;;;;7372370;19;20566;-75
2023/12/13 02:40:18;;;;;;;19.80;7.70;;;;;;;;;;7372488;19;20154;-75
2023/12/13 02:42:44;;;;;;;20.65;8.50;;;;;;;;;;7392758;19;20010;-75
2023/12/13 02:45:11;;;;;;;20.77;8.27;;;;;;;;;;7371801;19;20025;-75
2023/12/13 02:47:41;;;;;;;18.35;7.72;;;;;;;;;;7369391;19;20013;-75
2023/12/13 02:50:15;;;;;;;20.02;8.10;;;;;;;;;;7369823;19;20110;-75
2023/12/13 02:52:41;;;;;;;20.75;7.25;;;;;;;;;;7369508;19;20049;-75
2023/12/13 02:55:09;;;;;;;19.50;5.75;;;;;;;;;;7367741;19;20010;-75
2023/12/13 02:57:34;;;;;;;13.38;4.78;;;;;;;;;;7390046;19;20495;-75
2023/12/13 03:00:00;;;;;;;10.77;4.70;;;;;;;;;;7368260;19;20010;-75
2023/12/13 03:02:25;;;;;;;17.65;5.07;;;;;;;;;;7367630;19;20089;-75
2023/12/13 03:04:51;;;;;;;17.00;4.65;;;;;;;;;;7369594;19;20468;-75
2023/12/13 03:07:16;;;;;;;14.18;4.30;;;;;;;;;;7367558;19;20011;-75
2023/12/13 03:09:42;;;;;;;13.52;4.22;;;;;;;;;;7390823;19;20009;-75
2023/12/13 03:12:07;;;;;;;15.60;4.80;;;;;;;;;;7369551;19;20021;-75
2023/12/13 03:14:33;;;;;;;16.70;4.60;;;;;;;;;;7371492;19;20017;-75
2023/12/13 03:16:58;;;;;;;15.70;5.03;;;;;;;;;;7370233;19;20617;-75
2023/12/13 03:19:23;;;;;;;19.40;4.90;;;;;;;;;;7371441;19;20010;-75
2023/12/13 03:21:48;;;;;;;14.38;5.07;;;;;;;;;;7376878;19;20002;-75
2023/12/13 03:24:14;;;;;;;16.13;4.72;;;;;;;;;;7392801;19;19998;-75
2023/12/13 03:26:39;;;;;;;17.00;4.78;;;;;;;;;;7368215;19;20011;-75
2023/12/13 03:29:05;;;;;;;15.77;5.18;;;;;;;;;;7370327;19;20023;-75
2023/12/13 03:31:30;;;;;;;14.65;4.35;;;;;;;;;;7371058;19;19999;-75
2023/12/13 03:33:55;;;;;;;20.77;4.95;;;;;;;;;;7368123;19;19994;-75
2023/12/13 03:36:21;;;;;;;17.98;4.70;;;;;;;;;;7388399;19;20005;-75
2023/12/13 03:38:46;;;;;;;18.25;4.80;;;;;;;;;;7367209;19;20101;-75
2023/12/13 03:41:12;;;;;;;13.93;4.32;;;;;;;;;;7368734;19;20568;-75
2023/12/13 03:43:37;;;;;;;17.25;4.43;;;;;;;;;;7364766;19;20010;-74
2023/12/13 03:46:02;;;;;;;16.67;4.78;;;;;;;;;;7367215;19;20003;-74
2023/12/13 03:48:28;;;;;;;11.07;4.30;;;;;;;;;;7389746;19;19997;-74
2023/12/13 03:50:53;;;;;;;13.32;4.05;;;;;;;;;;7367451;19;20005;-74
2023/12/13 03:53:19;;;;;;;14.68;3.95;;;;;;;;;;7365689;19;20014;-74
2023/12/13 03:55:44;;;;;;;14.15;4.07;;;;;;;;;;7368618;19;20021;-76
2023/12/13 03:58:09;;;;;;;11.50;3.67;;;;;;;;;;7371904;19;20025;-74
2023/12/13 04:00:35;;;;;;;14.45;3.88;;;;;;;;;;7390150;19;20002;-74
2023/12/13 04:03:00;;;;;;;15.40;3.85;;;;;;;;;;7365687;19;20007;-74
2023/12/13 04:05:26;;;;;;;11.93;3.28;;;;;;;;;;7366518;19;20117;-74
2023/12/13 04:07:52;;;;;;;12.38;3.50;;;;;;;;;;7366312;19;20017;-74
2023/12/13 04:10:18;;;;;;;14.52;3.50;;;;;;;;;;7367022;19;20014;-74
2023/12/13 04:12:43;;;;;;;15.55;3.85;;;;;;;;;;7387808;19;20023;-74
2023/12/13 04:15:09;;;;;;;16.42;3.40;;;;;;;;;;7365342;19;20710;-74
2023/12/13 04:17:34;;;;;;;11.10;2.90;;;;;;;;;;7365779;19;20007;-75
2023/12/13 04:20:00;;;;;;;14.77;3.55;;;;;;;;;;7365590;19;20619;-75
2023/12/13 04:22:25;;;;;;;8.57;2.90;;;;;;;;;;7364577;19;20421;-75
2023/12/13 04:24:50;;;;;;;9.07;4.07;;;;;;;;;;7365739;19;20044;-76
2023/12/13 04:27:16;;;;;;;8.68;3.25;;;;;;;;;;7387589;19;20419;-76
2023/12/13 04:29:41;;;;;;;13.93;4.88;;;;;;;;;;7365840;19;20069;-75
2023/12/13 04:32:06;;;;;;;12.65;5.40;;;;;;;;;;7363903;19;20018;-75
2023/12/13 04:34:32;;;;;;;13.05;5.20;;;;;;;;;;7364425;19;20097;-75
2023/12/13 04:36:57;;;;;;;12.10;5.93;;;;;;;;;;7366286;19;19999;-75
2023/12/13 04:39:23;;;;;;;16.48;5.80;;;;;;;;;;7387791;19;20010;-75
2023/12/13 04:41:48;;;;;;;10.55;3.63;;;;;;;;;;7366403;19;20734;-75
2023/12/13 04:44:13;;;;;;;14.27;3.10;;;;;;;;;;7365825;19;20010;-75
2023/12/13 04:46:39;;;;;;;11.57;3.40;;;;;;;;;;7363971;19;20018;-75
2023/12/13 04:49:05;;;;;;;10.27;3.05;;;;;;;;;;7364745;19;20081;-75
2023/12/13 04:51:30;;;;;;;12.45;3.20;;;;;;;;;;7389083;19;20010;-75
2023/12/13 04:53:57;;;;;;;13.57;3.50;;;;;;;;;;7364261;19;20420;-75
2023/12/13 04:56:23;;;;;;;11.60;2.60;;;;;;;;;;7366339;19;20739;-76
2023/12/13 04:58:48;;;;;;;10.75;3.90;;;;;;;;;;7368627;19;20014;-76
2023/12/13 05:01:13;;;;;;;14.65;6.05;;;;;;;;;;7367366;19;20031;-76
2023/12/13 05:03:39;;;;;;;14.77;5.20;;;;;;;;;;7388797;19;20007;-76
2023/12/13 05:06:04;;;;;;;11.07;5.60;;;;;;;;;;7365155;19;20014;-76
2023/12/13 05:08:30;;;;;;;12.27;5.28;;;;;;;;;;7366427;19;20160;-75
2023/12/13 05:10:56;;;;;;;15.55;5.80;;;;;;;;;;7366046;19;20086;-75
2023/12/13 05:13:22;;;;;;;10.68;5.07;;;;;;;;;;7365518;19;20035;-77
2023/12/13 05:15:48;;;;;;;13.35;5.25;;;;;;;;;;7381922;19;20007;-75
2023/12/13 05:18:13;;;;;;;11.48;4.78;;;;;;;;;;7381554;19;20034;-75
2023/12/13 05:20:39;;;;;;;11.07;4.82;;;;;;;;;;7365817;19;20070;-76
2023/12/13 05:23:04;;;;;;;12.93;4.60;;;;;;;;;;7362301;19;20018;-76
2023/12/13 05:25:29;;;;;;;18.50;4.82;;;;;;;;;;7363974;19;20006;-76
2023/12/13 05:27:55;;;;;;;16.83;5.53;;;;;;;;;;7364664;19;20018;-76
2023/12/13 05:30:23;;;;;;;19.30;5.45;;;;;;;;;;7383931;19;20001;-76
2023/12/13 05:32:49;;;;;;;24.08;6.68;;;;;;;;;;7361753;19;20010;-76
2023/12/13 05:35:15;;;;;;;20.85;6.80;;;;;;;;;;7363560;19;20409;-76
2023/12/13 05:37:40;;;;;;;24.52;7.20;;;;;;;;;;7364216;19;20010;-76
2023/12/13 05:40:06;;;;;;;21.38;7.57;;;;;;;;;;7362592;19;20743;-75
2023/12/13 05:42:33;;;;;;;24.98;7.00;;;;;;;;;;7384045;19;20034;-76
2023/12/13 05:44:58;;;;;;;27.45;8.48;;;;;;;;;;7364801;19;20038;-75
2023/12/13 05:47:24;;;;;;;28.48;7.20;;;;;;;;;;7362269;19;20747;-75
2023/12/13 05:49:49;;;;;;;19.63;6.13;;;;;;;;;;7370382;19;20219;-76
2023/12/13 05:52:14;;;;;;;29.58;7.13;;;;;;;;;;7376540;19;20002;-76
2023/12/13 05:54:40;;;;;;;42.38;8.05;;;;;;;;;;7398131;19;20007;-75
2023/12/13 05:57:05;;;;;;;32.47;8.20;;;;;;;;;;7373389;19;20031;-76
2023/12/13 05:59:31;;;;;;;32.35;7.57;;;;;;;;;;7371850;19;20106;-74
2023/12/13 06:01:56;;;;;;;24.80;7.85;;;;;;;;;;7373213;19;20014;-75
2023/12/13 06:04:22;;;;;;;27.23;8.70;;;;;;;;;;7368260;19;20085;-69
2023/12/13 06:06:48;;;;;;;35.10;8.00;;;;;;;;;;7386107;19;21506;-69
2023/12/13 06:09:14;;;;;;;25.83;6.45;;;;;;;;;;7389504;19;20019;-70
2023/12/13 06:11:39;;;;;;;19.27;7.05;;;;;;;;;;7371400;19;20456;-69
2023/12/13 06:14:05;;;;;;;30.33;7.45;;;;;;;;;;7376161;19;20389;-76
2023/12/13 06:16:30;;;;;;;23.75;7.97;;;;;;;;;;7374268;19;20253;-76
2023/12/13 06:18:55;;;;;;;19.08;7.53;;;;;;;;;;7372960;19;20082;-77
2023/12/13 06:21:21;;;;;;;20.92;7.38;;;;;;;;;;7398878;19;20002;-77
2023/12/13 06:23:46;;;;;;;30.52;8.95;;;;;;;;;;7374995;19;20872;-77
2023/12/13 06:26:12;;;;;;;22.92;7.43;;;;;;;;;;7375743;19;20024;-77
2023/12/13 06:28:37;;;;;;;23.48;7.25;;;;;;;;;;7378720;19;20009;-77
2023/12/13 06:31:03;;;;;;;20.90;6.43;;;;;;;;;;7378812;19;20002;-77
2023/12/13 06:33:29;;;;;;;20.50;6.95;;;;;;;;;;7396891;19;20002;-76
2023/12/13 06:35:54;;;;;;;20.70;7.82;;;;;;;;;;7360800;19;19999;-77
2023/12/13 06:38:20;;;;;;;12.18;6.97;;;;;;;;;;7372733;19;20013;-76
2023/12/13 06:40:45;;;;;;;26.25;8.45;;;;;;;;;;7372036;19;20578;-77
2023/12/13 06:43:11;;;;;;;22.30;7.70;;;;;;;;;;7366045;19;20473;-76
2023/12/13 06:45:36;;;;;;;18.02;6.78;;;;;;;;;;7388725;19;20030;-76
2023/12/13 06:48:02;;;;;;;18.83;7.53;;;;;;;;;;7366905;19;19999;-76
2023/12/13 06:50:28;;;;;;;20.02;7.82;;;;;;;;;;7363767;19;20010;-76
2023/12/13 06:52:54;;;;;;;17.45;7.32;;;;;;;;;;7364638;19;20058;-76
2023/12/13 06:55:19;;;;;;;26.40;7.72;;;;;;;;;;7364240;19;20010;-75
2023/12/13 06:57:45;;;;;;;24.05;7.35;;;;;;;;;;7385144;19;20017;-76
2023/12/13 07:00:11;;;;;;;17.92;7.70;;;;;;;;;;7364507;19;20002;-76
2023/12/13 07:02:36;;;;;;;20.73;7.43;;;;;;;;;;7362795;19;20006;-76
2023/12/13 07:05:02;;;;;;;24.00;8.55;;;;;;;;;;7366440;19;20014;-76
2023/12/13 07:07:27;;;;;;;26.77;12.48;;;;;;;;;;7366299;19;20528;-76
2023/12/13 07:09:53;;;;;;;19.17;7.97;;;;;;;;;;7367198;19;20385;-76
2023/12/13 07:12:20;;;;;;;20.58;9.05;;;;;;;;;;7388873;19;20472;-76
2023/12/13 07:14:45;;;;;;;18.90;8.10;;;;;;;;;;7365889;19;20050;-76
2023/12/13 07:17:11;;;;;;;20.40;7.65;;;;;;;;;;7365898;19;20010;-75
2023/12/13 07:19:36;;;;;;;17.52;6.72;;;;;;;;;;7367465;19;20006;-75
2023/12/13 07:22:02;;;;;;;20.67;6.97;;;;;;;;;;7365875;19;20026;-75
2023/12/13 07:24:27;;;;;;;22.02;6.50;;;;;;;;;;7385928;19;20003;-76
2023/12/13 07:26:52;;;;;;;15.77;6.38;;;;;;;;;;7371371;19;20069;-73
2023/12/13 07:29:18;;;;;;;17.52;7.03;;;;;;;;;;7365372;19;20013;-72
2023/12/13 07:31:45;;;;;;;17.45;7.13;;;;;;;;;;7364014;19;20338;-71
2023/12/13 07:34:10;;;;;;;15.50;7.22;;;;;;;;;;7363552;19;20026;-71
2023/12/13 07:36:36;;;;;;;11.85;6.55;;;;;;;;;;7385741;19;20067;-69
2023/12/13 07:39:03;;;;;;;21.27;8.32;;;;;;;;;;7365626;19;20523;-69
2023/12/13 07:41:29;;;;;;;18.90;7.50;;;;;;;;;;7365622;19;20014;-80
2023/12/13 07:43:54;;;;;;;18.90;8.30;;;;;;;;;;7363367;19;20011;-76
2023/12/13 07:46:20;;;;;;;24.25;8.45;;;;;;;;;;7362971;19;20719;-79
2023/12/13 07:48:45;;;;;;;19.77;8.57;;;;;;;;;;7401960;19;20030;-80
2023/12/13 07:51:10;;;;;;;18.92;8.05;;;;;;;;;;7375206;19;20539;-79
2023/12/13 07:53:36;;;;;;;14.50;6.63;;;;;;;;;;7376756;19;20006;-77
2023/12/13 07:56:01;;;;;;;16.85;7.57;;;;;;;;;;7369004;19;20391;-77
2023/12/13 07:58:26;;;;;;;18.27;7.85;;;;;;;;;;7367025;19;20114;-78
2023/12/13 08:00:52;;;;;;;22.98;7.97;;;;;;;;;;7370809;19;20010;-75
2023/12/13 08:03:17;;;;;;;16.95;7.43;;;;;;;;;;7387091;19;20037;-75
2023/12/13 08:05:42;;;;;;;18.05;7.20;;;;;;;;;;7364498;19;20010;-75
2023/12/13 08:08:08;;;;;;;17.27;7.50;;;;;;;;;;7366579;19;20006;-76
2023/12/13 08:10:34;;;;;;;15.10;7.95;;;;;;;;;;7369138;19;20003;-80
2023/12/13 08:12:59;;;;;;;16.42;7.13;;;;;;;;;;7369949;19;20006;-77
2023/12/13 08:15:24;;;;;;;17.33;7.63;;;;;;;;;;7390793;19;20002;-79
2023/12/13 08:17:50;;;;;;;18.83;7.30;;;;;;;;;;7366931;19;20157;-77
2023/12/13 08:20:15;;;;;;;15.93;6.93;;;;;;;;;;7370071;19;19998;-77
2023/12/13 08:22:40;;;;;;;13.43;7.07;;;;;;;;;;7379473;19;20101;-77
2023/12/13 08:25:06;;;;;;;20.30;6.93;;;;;;;;;;7386416;19;19999;-80
2023/12/13 08:27:31;;;;;;;18.40;6.65;;;;;;;;;;7410042;19;20005;-79
2023/12/13 08:29:56;;;;;;;14.75;6.82;;;;;;;;;;7389857;19;20460;-79
2023/12/13 08:32:22;;;;;;;14.80;6.47;;;;;;;;;;7378399;19;20019;-78
2023/12/13 08:34:48;;;;;;;15.02;6.40;;;;;;;;;;7375423;19;20014;-77
2023/12/13 08:37:14;;;;;;;14.45;6.43;;;;;;;;;;7368838;19;20043;-79
2023/12/13 08:39:40;;;;;;;14.85;6.47;;;;;;;;;;7398271;19;19999;-78
2023/12/13 08:42:06;;;;;;;17.95;6.80;;;;;;;;;;7370431;19;20089;-78
2023/12/13 08:44:31;;;;;;;14.70;6.30;;;;;;;;;;7366784;19;20014;-80
2023/12/13 08:46:56;;;;;;;14.05;5.90;;;;;;;;;;7367236;19;20030;-78
2023/12/13 08:49:22;;;;;;;19.05;6.53;;;;;;;;;;7369204;19;20937;-79
2023/12/13 08:51:47;;;;;;;17.48;7.20;;;;;;;;;;7393938;19;20007;-76
2023/12/13 08:54:12;;;;;;;17.23;7.05;;;;;;;;;;7364182;19;20030;-77
2023/12/13 08:56:38;;;;;;;12.93;6.05;;;;;;;;;;7364549;19;20014;-76
2023/12/13 08:59:03;;;;;;;12.95;6.40;;;;;;;;;;7364946;19;20041;-78
2023/12/13 09:01:29;;;;;;;14.63;7.05;;;;;;;;;;7363743;19;20009;-77
2023/12/13 09:03:54;;;;;;;14.80;6.50;;;;;;;;;;7361470;19;20069;-75
2023/12/13 09:06:20;;;;;;;13.55;6.75;;;;;;;;;;7383601;19;20535;-76
2023/12/13 09:08:45;;;;;;;12.77;6.80;;;;;;;;;;7358451;19;20089;-75
2023/12/13 09:11:11;;;;;;;15.70;6.80;;;;;;;;;;7363074;19;20034;-77
2023/12/13 09:13:37;;;;;;;15.00;6.75;;;;;;;;;;7362956;19;20010;-77
2023/12/13 09:16:04;;;;;;;13.93;7.07;;;;;;;;;;7362325;19;20002;-76
2023/12/13 09:18:29;;;;;;;30.38;16.33;;;;;;;;;;7384715;19;20019;-76
2023/12/13 09:20:55;;;;;;;22.67;11.15;;;;;;;;;;7361809;19;20014;-74
2023/12/13 09:23:23;;;;;;;16.35;9.40;;;;;;;;;;7360923;19;20510;-77
2023/12/13 09:25:49;;;;;;;17.25;7.30;;;;;;;;;;7367046;19;20019;-76
2023/12/13 09:28:14;;;;;;;14.77;6.63;;;;;;;;;;7374034;19;20504;-79
2023/12/13 09:30:40;;;;;;;11.85;5.93;;;;;;;;;;7399248;19;20009;-79
2023/12/13 09:33:05;;;;;;;12.98;5.32;;;;;;;;;;7380299;19;20010;-80
2023/12/13 09:35:30;;;;;;;12.05;5.63;;;;;;;;;;7379850;19;20165;-79
2023/12/13 09:37:56;;;;;;;8.93;4.15;;;;;;;;;;7380689;19;20048;-77
2023/12/13 09:40:22;;;;;;;7.63;3.85;;;;;;;;;;7375643;19;20014;-77
2023/12/13 09:42:47;;;;;;;9.57;3.65;;;;;;;;;;7392697;19;20007;-76
2023/12/13 09:45:17;;;;;;;7.32;3.35;;;;;;;;;;7375971;19;20468;-77
2023/12/13 09:47:44;;;;;;;11.75;3.80;;;;;;;;;;7392238;19;20038;-79
2023/12/13 09:50:11;;;;;;;6.82;2.67;;;;;;;;;;7402481;19;19999;-78
2023/12/13 09:52:38;;;;;;;6.72;3.35;;;;;;;;;;7383705;19;20006;-77
2023/12/13 09:55:06;;;;;;;8.70;3.30;;;;;;;;;;7387029;19;20002;-75
2023/12/13 09:57:32;;;;;;;6.35;3.17;;;;;;;;;;7401479;19;20038;-77
2023/12/13 09:59:57;;;;;;;5.00;1.80;;;;;;;;;;7368415;19;20057;-77
2023/12/13 10:02:23;;;;;;;4.13;1.80;;;;;;;;;;7371021;19;20003;-78
2023/12/13 10:04:49;;;;;;;4.05;1.80;;;;;;;;;;7373010;19;20353;-77
2023/12/13 10:07:14;;;;;;;3.28;1.48;;;;;;;;;;7385231;19;20011;-77
2023/12/13 10:09:40;;;;;;;3.85;1.67;;;;;;;;;;7414419;19;20019;-80
2023/12/13 10:12:11;;;;;;;2.65;1.27;;;;;;;;;;7396238;19;20034;-78
2023/12/13 10:14:36;;;;;;;4.43;1.30;;;;;;;;;;7379223;19;20077;-77
2023/12/13 10:17:03;;;;;;;2.55;1.20;;;;;;;;;;7377129;19;20410;-78
2023/12/13 10:19:29;;;;;;;2.47;1.40;;;;;;;;;;7373444;19;20035;-77
2023/12/13 10:21:54;;;;;;;5.90;1.40;;;;;;;;;;7370175;19;20003;-76
2023/12/13 10:24:24;;;;;;;3.10;1.30;;;;;;;;;;7390470;19;20018;-77
2023/12/13 10:26:50;;;;;;;2.63;1.10;;;;;;;;;;7370393;19;20063;-79
2023/12/13 10:29:19;;;;;;;11.45;4.80;;;;;;;;;;7370972;19;20041;-79
2023/12/13 10:31:45;;;;;;;9.40;5.55;;;;;;;;;;7379362;19;20018;-77
2023/12/13 10:34:10;;;;;;;2.72;1.17;;;;;;;;;;7387334;19;20002;-80
2023/12/13 10:36:36;;;;;;;4.00;1.25;;;;;;;;;;7404682;19;20365;-77
2023/12/13 10:39:05;;;;;;;4.68;1.25;;;;;;;;;;7379979;19;19999;-79
2023/12/13 10:41:31;;;;;;;3.63;1.30;;;;;;;;;;7376942;19;20074;-79
2023/12/13 10:43:58;;;;;;;3.72;1.40;;;;;;;;;;7375336;19;20400;-78
2023/12/13 10:46:30;;;;;;;3.75;1.30;;;;;;;;;;7376357;19;20007;-81
2023/12/13 10:48:58;;;;;;;3.05;1.10;;;;;;;;;;7382166;19;20011;-80
2023/12/13 10:51:25;;;;;;;3.47;1.33;;;;;;;;;;7399827;19;20452;-79
2023/12/13 10:53:52;;;;;;;2.10;1.20;;;;;;;;;;7373619;19;20005;-80
2023/12/13 10:56:18;;;;;;;4.45;1.33;;;;;;;;;;7380353;19;20006;-78
2023/12/13 10:58:46;;;;;;;4.80;1.23;;;;;;;;;;7394139;19;20004;-80
2023/12/13 11:01:14;;;;;;;3.72;1.50;;;;;;;;;;7405650;19;20006;-80
2023/12/13 11:03:51;;;;;;;2.22;1.25;;;;;;;;;;7423597;19;20503;-80
2023/12/13 11:06:17;;;;;;;3.58;1.13;;;;;;;;;;7396991;19;20046;-80
2023/12/13 11:08:43;;;;;;;3.72;1.27;;;;;;;;;;7376712;19;20010;-80
2023/12/13 11:11:14;;;;;;;4.45;1.40;;;;;;;;;;7375100;19;20006;-81
2023/12/13 11:13:49;;;;;;;4.20;1.42;;;;;;;;;;7369186;19;20028;-78
2023/12/13 11:16:19;;;;;;;2.65;1.08;;;;;;;;;;7370431;19;20340;-78
2023/12/13 11:18:46;;;;;;;23.55;2.33;;;;;;;;;;7393253;19;20999;-79
2023/12/13 11:21:26;;;;;;;4.10;1.30;;;;;;;;;;7376427;19;20011;-79
2023/12/13 11:23:53;;;;;;;5.18;1.52;;;;;;;;;;7370666;19;20014;-78
2023/12/13 11:26:24;;;;;;;4.15;1.40;;;;;;;;;;7370253;19;20002;-77
2023/12/13 11:28:51;;;;;;;5.57;1.55;;;;;;;;;;7371024;19;20775;-79
2023/12/13 11:31:23;;;;;;;3.88;1.38;;;;;;;;;;7368504;19;20015;-78
2023/12/13 11:33:50;;;;;;;4.07;1.40;;;;;;;;;;7370247;19;20372;-79
2023/12/13 11:36:20;;;;;;;2.97;1.23;;;;;;;;;;7390951;19;20492;-79
2023/12/13 11:38:47;;;;;;;5.17;1.80;;;;;;;;;;7375907;19;20042;-78
2023/12/13 11:41:15;;;;;;;4.50;1.50;;;;;;;;;;7377504;19;20232;-79
2023/12/13 11:43:42;;;;;;;13.77;6.30;;;;;;;;;;7371608;19;20825;-84
2023/12/13 11:46:07;;;;;;;2.83;1.40;;;;;;;;;;7381594;19;20015;-82
2023/12/13 11:48:33;;;;;;;7.50;3.67;;;;;;;;;;7394201;19;20006;-81
2023/12/13 11:50:59;;;;;;;26.08;16.70;;;;;;;;;;7377741;19;20006;-79
2023/12/13 11:53:24;;;;;;;4.40;1.50;;;;;;;;;;7372895;19;19995;-79
2023/12/13 11:55:50;;;;;;;6.60;1.45;;;;;;;;;;7374580;19;20002;-81
2023/12/13 11:58:16;;;;;;;16.52;8.63;;;;;;;;;;7372221;19;19999;-79
2023/12/13 12:00:43;;;;;;;3.13;1.83;;;;;;;;;;7395264;19;20014;-80
2023/12/13 12:03:08;;;;;;;5.85;1.50;;;;;;;;;;7371838;19;20077;-79
2023/12/13 12:05:34;;;;;;;3.95;2.08;;;;;;;;;;7369817;19;20019;-77
2023/12/13 12:08:02;;;;;;;7.53;3.55;;;;;;;;;;7372846;19;20013;-78
2023/12/13 12:10:30;;;;;;;6.75;1.75;;;;;;;;;;7367868;19;20003;-77
2023/12/13 12:12:59;;;;;;;5.32;1.42;;;;;;;;;;7367225;19;20676;-79
2023/12/13 12:15:25;;;;;;;5.88;2.47;;;;;;;;;;7388063;19;19999;-77
2023/12/13 12:17:51;;;;;;;3.65;1.60;;;;;;;;;;7362470;19;20003;-77
2023/12/13 12:20:17;;;;;;;5.10;1.50;;;;;;;;;;7364630;19;20846;-78
2023/12/13 12:22:42;;;;;;;4.88;1.40;;;;;;;;;;7366615;19;20014;-77
2023/12/13 12:25:08;;;;;;;6.63;2.60;;;;;;;;;;7366766;19;20020;-77
2023/12/13 12:27:35;;;;;;;3.53;1.50;;;;;;;;;;7386770;19;19994;-77
2023/12/13 12:30:03;;;;;;;4.25;1.40;;;;;;;;;;7367939;19;20002;-79
2023/12/13 12:32:29;;;;;;;3.75;1.30;;;;;;;;;;7374700;19;20005;-78
2023/12/13 12:34:54;;;;;;;4.30;1.50;;;;;;;;;;7376016;19;20002;-77
2023/12/13 12:37:19;;;;;;;6.55;1.70;;;;;;;;;;7367976;19;20003;-78
2023/12/13 12:39:45;;;;;;;7.30;1.42;;;;;;;;;;7386364;19;20046;-77
2023/12/13 12:42:10;;;;;;;4.80;1.98;;;;;;;;;;7365275;19;20094;-78
2023/12/13 12:44:36;;;;;;;2.10;1.10;;;;;;;;;;7368103;19;20022;-78
2023/12/13 12:47:03;;;;;;;4.80;1.50;;;;;;;;;;7371217;19;20033;-79
2023/12/13 12:49:28;;;;;;;3.15;1.30;;;;;;;;;;7367170;19;20428;-77
2023/12/13 12:51:54;;;;;;;4.05;1.33;;;;;;;;;;7368444;19;20012;-77
2023/12/13 12:54:19;;;;;;;4.95;1.52;;;;;;;;;;7385515;19;20027;-77
2023/12/13 12:56:45;;;;;;;5.40;1.50;;;;;;;;;;7364880;19;20010;-78
2023/12/13 12:59:14;;;;;;;5.13;1.50;;;;;;;;;;7370982;19;20074;-78
2023/12/13 13:01:43;;;;;;;5.45;1.52;;;;;;;;;;7370485;19;20771;-77
2023/12/13 13:04:13;;;;;;;5.85;1.63;;;;;;;;;;7365916;19;20014;-79
2023/12/13 13:06:38;;;;;;;3.20;1.33;;;;;;;;;;7403184;19;20006;-78
2023/12/13 13:09:03;;;;;;;7.72;1.83;;;;;;;;;;7388062;19;20006;-78
2023/12/13 13:11:29;;;;;;;3.28;1.38;;;;;;;;;;7392340;19;20011;-78
2023/12/13 13:13:54;;;;;;;5.47;1.73;;;;;;;;;;7378665;19;20018;-77
2023/12/13 13:16:21;;;;;;;4.97;1.40;;;;;;;;;;7368585;19;20006;-77
2023/12/13 13:18:46;;;;;;;6.00;1.60;;;;;;;;;;7388766;19;20010;-75
2023/12/13 13:21:12;;;;;;;3.60;1.65;;;;;;;;;;7362450;19;21382;-76
2023/12/13 13:23:37;;;;;;;21.88;11.18;;;;;;;;;;7361703;19;20322;-75
2023/12/13 13:26:04;;;;;;;6.93;2.15;;;;;;;;;;7361777;19;20026;-76
2023/12/13 13:28:30;;;;;;;5.82;2.47;;;;;;;;;;7364302;19;20007;-76
2023/12/13 13:30:56;;;;;;;6.20;1.70;;;;;;;;;;7361129;19;19995;-76
2023/12/13 13:33:21;;;;;;;5.63;1.73;;;;;;;;;;7381969;19;20024;-77
2023/12/13 13:35:49;;;;;;;4.32;1.38;;;;;;;;;;7361706;19;20007;-75
2023/12/13 13:38:14;;;;;;;5.35;1.60;;;;;;;;;;7363365;19;19999;-77
2023/12/13 13:40:40;;;;;;;6.00;1.70;;;;;;;;;;7363747;19;20082;-75
2023/12/13 13:43:05;;;;;;;4.55;1.52;;;;;;;;;;7362077;19;20065;-76
2023/12/13 13:45:31;;;;;;;3.03;1.35;;;;;;;;;;7384464;19;20003;-75
2023/12/13 13:47:56;;;;;;;4.65;1.60;;;;;;;;;;7362967;19;20010;-77
2023/12/13 13:50:21;;;;;;;7.18;1.45;;;;;;;;;;7362278;19;20011;-75
2023/12/13 13:52:47;;;;;;;7.18;1.58;;;;;;;;;;7362156;19;20002;-76
2023/12/13 13:55:12;;;;;;;5.82;1.60;;;;;;;;;;7362059;19;20540;-76
2023/12/13 13:57:38;;;;;;;4.13;1.55;;;;;;;;;;7381794;19;20342;-76
2023/12/13 14:00:05;;;;;;;5.47;1.70;;;;;;;;;;7360969;19;20365;-76
2023/12/13 14:02:32;;;;;;;6.10;1.55;;;;;;;;;;7360375;19;20066;-76
2023/12/13 14:04:57;;;;;;;7.25;1.48;;;;;;;;;;7360391;19;20013;-75
2023/12/13 14:07:23;;;;;;;5.85;1.58;;;;;;;;;;7360966;19;20010;-76
2023/12/13 14:09:49;;;;;;;5.93;1.75;;;;;;;;;;7373136;19;20009;-76
2023/12/13 14:12:14;;;;;;;6.75;1.70;;;;;;;;;;7386775;19;20003;-76
2023/12/13 14:14:40;;;;;;;5.50;1.70;;;;;;;;;;7368815;19;19998;-76
2023/12/13 14:17:05;;;;;;;7.10;2.17;;;;;;;;;;7371700;19;20010;-76
2023/12/13 14:19:30;;;;;;;7.40;1.90;;;;;;;;;;7371913;19;20549;-76
2023/12/13 14:21:56;;;;;;;5.28;1.88;;;;;;;;;;7372801;19;20002;-76
2023/12/13 14:24:21;;;;;;;5.07;1.83;;;;;;;;;;7391801;19;20003;-76
2023/12/13 14:26:47;;;;;;;7.43;1.88;;;;;;;;;;7373014;19;20014;-77